Terminal Aerodrome Forecast
Issued by NWS

Home | Current Version | Previous Version | Text Only | Print | Product List | Glossary On
Versions: 1 2 3 4 5 6 7 8 9 10 11 12 13 14 15 16 17
000
FTUS42 KMLB 030238 AAB
TAFISM
TAF AMD
KISM 030238Z 0303/0324 VRB03KT P6SM FEW007 BKN120 BKN140
      TEMPO 0303/0304 -RA
     FM030400 18003KT P6SM SCT030 OVC060
     FM031400 14004KT P6SM SCT020 BKN250
     FM031800 10007KT P6SM VCTS SCT025CB BKN250
      AMD NOT SKED TIL 031200=

USA.gov is the U.S. government's official web portal to all federal, state and local government web resources and services.